Current Weather

Raleigh-Durham Intl

Raleigh/Durham, North Carolina (KRDU)

Report from: Monday, June 27, 2022 6:51 AM EDT
Current time: Monday, June 27, 2022 7:44 AM EDT

Nearby weather
Weather history
Weather forecast

Temperature25.0°C (77.0°F)
Dew point20.0°C (68.0°F)
Winds 8 kts (4.1 m/s, 9.2 mph) South-Southwest (200°)
Visibility10 mi. (16.1 km)
Clouds Few clouds 6,000 ft. (1,829 m)
Ceiling: Broken clouds 12,000 ft. (3,658 m)
Altimeter30.06 in.Hg (1018 mB)
Relative humidity74 %
Density altitude1,317 ft. (401 m)
Sea-level pressure101.7 kPa (1017 mB, 30.04 in.Hg)
Remarks Automated weather observing station with precipitation discriminator
Flight conditions Visual Meteorological Conditions
Raw dataKRDU 271051Z 20008KT 10SM FEW060 BKN120 25/20 A3006 RMK AO2 SLP173 T02500200
An error has occurred. This application may no longer respond until reloaded. Reload 🗙